sensor_id;sensor_type;location;lat;lon;timestamp;temperature;humidity
24262;DHT22;12385;51.412;5.540;2022-09-09T00:00:17;15.50;99.90
24262;DHT22;12385;51.412;5.540;2022-09-09T00:02:49;15.60;99.90
24262;DHT22;12385;51.412;5.540;2022-09-09T00:05:28;15.50;99.90
24262;DHT22;12385;51.412;5.540;2022-09-09T00:07:59;15.50;99.90
24262;DHT22;12385;51.412;5.540;2022-09-09T00:10:39;15.50;99.90
24262;DHT22;12385;51.412;5.540;2022-09-09T00:13:32;15.40;99.90
24262;DHT22;12385;51.412;5.540;2022-09-09T00:18:59;15.40;99.90
24262;DHT22;12385;51.412;5.540;2022-09-09T00:21:53;15.40;99.90
24262;DHT22;12385;51.412;5.540;2022-09-09T00:24:32;15.40;99.90
24262;DHT22;12385;51.412;5.540;2022-09-09T00:27:51;15.30;99.90
24262;DHT22;12385;51.412;5.540;2022-09-09T00:30:00;15.30;99.90
24262;DHT22;12385;51.412;5.540;2022-09-09T00:32:29;15.30;99.90
24262;DHT22;12385;51.412;5.540;2022-09-09T00:35:02;15.30;99.90
24262;DHT22;12385;51.412;5.540;2022-09-09T00:37:29;15.30;99.90
24262;DHT22;12385;51.412;5.540;2022-09-09T00:39:59;15.20;99.90
24262;DHT22;12385;51.412;5.540;2022-09-09T00:42:46;15.20;99.90
24262;DHT22;12385;51.412;5.540;2022-09-09T00:48:13;15.20;99.90
24262;DHT22;12385;51.412;5.540;2022-09-09T00:50:52;15.20;99.90
24262;DHT22;12385;51.412;5.540;2022-09-09T00:58:36;15.10;99.90
24262;DHT22;12385;51.412;5.540;2022-09-09T01:01:10;15.10;99.90
24262;DHT22;12385;51.412;5.540;2022-09-09T01:03:56;15.10;99.90
24262;DHT22;12385;51.412;5.540;2022-09-09T01:06:32;15.10;99.90
24262;DHT22;12385;51.412;5.540;2022-09-09T01:15:10;15.10;99.90
24262;DHT22;12385;51.412;5.540;2022-09-09T01:20:39;15.10;99.90
24262;DHT22;12385;51.412;5.540;2022-09-09T01:26:09;15.10;99.90
24262;DHT22;12385;51.412;5.540;2022-09-09T01:28:39;15.10;99.90
24262;DHT22;12385;51.412;5.540;2022-09-09T01:31:06;15.10;99.90
24262;DHT22;12385;51.412;5.540;2022-09-09T01:33:35;15.00;99.90
24262;DHT22;12385;51.412;5.540;2022-09-09T01:36:06;15.00;99.90
24262;DHT22;12385;51.412;5.540;2022-09-09T01:38:34;15.00;99.90
24262;DHT22;12385;51.412;5.540;2022-09-09T01:41:01;15.00;99.90
24262;DHT22;12385;51.412;5.540;2022-09-09T01:43:27;15.00;99.90
24262;DHT22;12385;51.412;5.540;2022-09-09T01:45:56;15.00;99.90
24262;DHT22;12385;51.412;5.540;2022-09-09T01:48:23;15.00;99.90
24262;DHT22;12385;51.412;5.540;2022-09-09T01:50:49;15.00;99.90
24262;DHT22;12385;51.412;5.540;2022-09-09T01:53:17;15.00;99.90
24262;DHT22;12385;51.412;5.540;2022-09-09T02:03:57;14.90;99.90
24262;DHT22;12385;51.412;5.540;2022-09-09T02:06:38;14.90;99.90
24262;DHT22;12385;51.412;5.540;2022-09-09T02:09:07;14.90;99.90
24262;DHT22;12385;51.412;5.540;2022-09-09T02:11:35;14.90;99.90
24262;DHT22;12385;51.412;5.540;2022-09-09T02:14:23;14.90;99.90
24262;DHT22;12385;51.412;5.540;2022-09-09T02:16:57;14.90;99.90
24262;DHT22;12385;51.412;5.540;2022-09-09T02:19:37;14.90;99.90
24262;DHT22;12385;51.412;5.540;2022-09-09T02:22:04;14.90;99.90
24262;DHT22;12385;51.412;5.540;2022-09-09T02:24:33;14.80;99.90
24262;DHT22;12385;51.412;5.540;2022-09-09T02:27:01;14.80;99.90
24262;DHT22;12385;51.412;5.540;2022-09-09T02:29:34;14.80;99.90
24262;DHT22;12385;51.412;5.540;2022-09-09T02:32:05;14.80;99.90
24262;DHT22;12385;51.412;5.540;2022-09-09T02:34:36;14.80;99.90
24262;DHT22;12385;51.412;5.540;2022-09-09T02:37:04;14.80;99.90
24262;DHT22;12385;51.412;5.540;2022-09-09T02:39:31;14.80;99.90
24262;DHT22;12385;51.412;5.540;2022-09-09T02:41:59;14.70;99.90
24262;DHT22;12385;51.412;5.540;2022-09-09T02:44:25;14.70;99.90
24262;DHT22;12385;51.412;5.540;2022-09-09T02:47:17;14.70;99.90
24262;DHT22;12385;51.412;5.540;2022-09-09T02:52:42;14.70;99.90
24262;DHT22;12385;51.412;5.540;2022-09-09T02:55:12;14.70;99.90
24262;DHT22;12385;51.412;5.540;2022-09-09T02:57:42;14.60;99.90
24262;DHT22;12385;51.412;5.540;2022-09-09T03:00:09;14.60;99.90
24262;DHT22;12385;51.412;5.540;2022-09-09T03:02:36;14.60;99.90
24262;DHT22;12385;51.412;5.540;2022-09-09T03:05:02;14.70;99.90
24262;DHT22;12385;51.412;5.540;2022-09-09T03:07:28;14.70;99.90
24262;DHT22;12385;51.412;5.540;2022-09-09T03:09:53;14.70;99.90
24262;DHT22;12385;51.412;5.540;2022-09-09T03:12:20;14.70;99.90
24262;DHT22;12385;51.412;5.540;2022-09-09T03:14:46;14.70;99.90
24262;DHT22;12385;51.412;5.540;2022-09-09T03:17:12;14.70;99.90
24262;DHT22;12385;51.412;5.540;2022-09-09T03:19:37;14.80;99.90
24262;DHT22;12385;51.412;5.540;2022-09-09T03:22:03;14.70;99.90
24262;DHT22;12385;51.412;5.540;2022-09-09T03:24:30;14.80;99.90
24262;DHT22;12385;51.412;5.540;2022-09-09T03:26:55;14.80;99.90
24262;DHT22;12385;51.412;5.540;2022-09-09T03:29:21;14.80;99.90
24262;DHT22;12385;51.412;5.540;2022-09-09T03:31:47;14.80;99.90
24262;DHT22;12385;51.412;5.540;2022-09-09T03:34:12;14.80;99.90
24262;DHT22;12385;51.412;5.540;2022-09-09T03:36:39;14.90;99.90
24262;DHT22;12385;51.412;5.540;2022-09-09T03:39:06;14.80;99.90
24262;DHT22;12385;51.412;5.540;2022-09-09T03:41:31;14.80;99.90
24262;DHT22;12385;51.412;5.540;2022-09-09T03:43:57;14.80;99.90
24262;DHT22;12385;51.412;5.540;2022-09-09T03:46:24;14.90;99.90
24262;DHT22;12385;51.412;5.540;2022-09-09T03:48:50;14.90;99.90
24262;DHT22;12385;51.412;5.540;2022-09-09T03:51:17;14.90;99.90
24262;DHT22;12385;51.412;5.540;2022-09-09T03:53:44;14.90;99.90
24262;DHT22;12385;51.412;5.540;2022-09-09T03:56:10;14.90;99.90
24262;DHT22;12385;51.412;5.540;2022-09-09T03:58:36;14.90;99.90
24262;DHT22;12385;51.412;5.540;2022-09-09T04:03:34;14.90;99.90
24262;DHT22;12385;51.412;5.540;2022-09-09T04:06:02;14.90;99.90
24262;DHT22;12385;51.412;5.540;2022-09-09T04:08:29;15.00;99.90
24262;DHT22;12385;51.412;5.540;2022-09-09T04:10:56;14.90;99.90
24262;DHT22;12385;51.412;5.540;2022-09-09T04:13:23;14.90;99.90
24262;DHT22;12385;51.412;5.540;2022-09-09T04:15:57;14.90;99.90
24262;DHT22;12385;51.412;5.540;2022-09-09T04:18:23;14.90;99.90
24262;DHT22;12385;51.412;5.540;2022-09-09T04:20:50;14.90;99.90
24262;DHT22;12385;51.412;5.540;2022-09-09T04:23:17;14.90;99.90
24262;DHT22;12385;51.412;5.540;2022-09-09T04:25:50;14.90;99.90
24262;DHT22;12385;51.412;5.540;2022-09-09T04:28:17;14.90;99.90
24262;DHT22;12385;51.412;5.540;2022-09-09T04:30:43;14.90;99.90
24262;DHT22;12385;51.412;5.540;2022-09-09T04:33:10;14.90;99.90
24262;DHT22;12385;51.412;5.540;2022-09-09T04:35:36;15.00;99.90
24262;DHT22;12385;51.412;5.540;2022-09-09T04:38:03;15.00;99.90
24262;DHT22;12385;51.412;5.540;2022-09-09T04:40:29;15.10;99.90
24262;DHT22;12385;51.412;5.540;2022-09-09T04:42:58;15.10;99.90
24262;DHT22;12385;51.412;5.540;2022-09-09T04:45:23;15.10;99.90
24262;DHT22;12385;51.412;5.540;2022-09-09T04:47:50;15.10;99.90
24262;DHT22;12385;51.412;5.540;2022-09-09T04:50:15;15.10;99.90
24262;DHT22;12385;51.412;5.540;2022-09-09T04:52:42;15.10;99.90
24262;DHT22;12385;51.412;5.540;2022-09-09T04:55:08;15.00;99.90
24262;DHT22;12385;51.412;5.540;2022-09-09T04:57:35;15.00;99.90
24262;DHT22;12385;51.412;5.540;2022-09-09T05:00:00;15.00;99.90
24262;DHT22;12385;51.412;5.540;2022-09-09T05:02:27;15.00;99.90
24262;DHT22;12385;51.412;5.540;2022-09-09T05:04:53;15.00;99.90
24262;DHT22;12385;51.412;5.540;2022-09-09T05:07:19;15.00;99.90
24262;DHT22;12385;51.412;5.540;2022-09-09T05:09:44;15.00;99.90
24262;DHT22;12385;51.412;5.540;2022-09-09T05:12:10;15.00;99.90
24262;DHT22;12385;51.412;5.540;2022-09-09T05:14:36;15.00;99.90
24262;DHT22;12385;51.412;5.540;2022-09-09T05:17:03;15.00;99.90
24262;DHT22;12385;51.412;5.540;2022-09-09T05:19:28;15.00;99.90
24262;DHT22;12385;51.412;5.540;2022-09-09T05:21:54;14.90;99.90
24262;DHT22;12385;51.412;5.540;2022-09-09T05:24:19;14.90;99.90
24262;DHT22;12385;51.412;5.540;2022-09-09T05:26:45;14.90;99.90
24262;DHT22;12385;51.412;5.540;2022-09-09T05:29:10;14.90;99.90
24262;DHT22;12385;51.412;5.540;2022-09-09T05:31:36;14.90;99.90
24262;DHT22;12385;51.412;5.540;2022-09-09T05:34:02;14.90;99.90
24262;DHT22;12385;51.412;5.540;2022-09-09T05:36:27;14.90;99.90
24262;DHT22;12385;51.412;5.540;2022-09-09T05:38:53;14.90;99.90
24262;DHT22;12385;51.412;5.540;2022-09-09T05:41:21;14.90;99.90
24262;DHT22;12385;51.412;5.540;2022-09-09T05:43:48;14.90;99.90
24262;DHT22;12385;51.412;5.540;2022-09-09T05:46:21;14.90;99.90
24262;DHT22;12385;51.412;5.540;2022-09-09T05:48:48;15.00;99.90
24262;DHT22;12385;51.412;5.540;2022-09-09T05:51:22;15.00;99.90
24262;DHT22;12385;51.412;5.540;2022-09-09T05:53:50;15.00;99.90
24262;DHT22;12385;51.412;5.540;2022-09-09T05:56:21;15.00;99.90
24262;DHT22;12385;51.412;5.540;2022-09-09T05:58:48;15.10;99.90
24262;DHT22;12385;51.412;5.540;2022-09-09T06:01:17;15.10;99.90
24262;DHT22;12385;51.412;5.540;2022-09-09T06:03:45;15.10;99.90
24262;DHT22;12385;51.412;5.540;2022-09-09T06:06:16;15.10;99.90
24262;DHT22;12385;51.412;5.540;2022-09-09T06:08:43;15.20;99.90
24262;DHT22;12385;51.412;5.540;2022-09-09T06:11:10;15.20;99.90
24262;DHT22;12385;51.412;5.540;2022-09-09T06:13:36;15.20;99.90
24262;DHT22;12385;51.412;5.540;2022-09-09T06:16:04;15.30;99.90
24262;DHT22;12385;51.412;5.540;2022-09-09T06:18:30;15.30;99.90
24262;DHT22;12385;51.412;5.540;2022-09-09T06:20:57;15.30;99.90
24262;DHT22;12385;51.412;5.540;2022-09-09T06:23:24;15.40;99.90
24262;DHT22;12385;51.412;5.540;2022-09-09T06:25:51;15.40;99.90
24262;DHT22;12385;51.412;5.540;2022-09-09T06:28:18;15.40;99.90
24262;DHT22;12385;51.412;5.540;2022-09-09T06:30:44;15.50;99.90
24262;DHT22;12385;51.412;5.540;2022-09-09T06:33:10;15.50;99.90
24262;DHT22;12385;51.412;5.540;2022-09-09T06:35:36;15.60;99.90
24262;DHT22;12385;51.412;5.540;2022-09-09T06:38:01;15.60;99.90
24262;DHT22;12385;51.412;5.540;2022-09-09T06:40:27;15.70;99.90
24262;DHT22;12385;51.412;5.540;2022-09-09T06:42:52;15.70;99.90
24262;DHT22;12385;51.412;5.540;2022-09-09T06:45:18;15.70;99.90
24262;DHT22;12385;51.412;5.540;2022-09-09T06:47:44;15.70;99.90
24262;DHT22;12385;51.412;5.540;2022-09-09T06:50:10;15.80;99.90
24262;DHT22;12385;51.412;5.540;2022-09-09T06:52:36;15.80;99.90
24262;DHT22;12385;51.412;5.540;2022-09-09T06:55:02;15.80;99.90
24262;DHT22;12385;51.412;5.540;2022-09-09T06:57:28;15.90;99.90
24262;DHT22;12385;51.412;5.540;2022-09-09T06:59:53;15.90;99.90
24262;DHT22;12385;51.412;5.540;2022-09-09T07:02:19;16.00;99.90
24262;DHT22;12385;51.412;5.540;2022-09-09T07:04:45;16.00;99.90
24262;DHT22;12385;51.412;5.540;2022-09-09T07:07:10;16.10;99.90
24262;DHT22;12385;51.412;5.540;2022-09-09T07:09:38;16.10;99.90
24262;DHT22;12385;51.412;5.540;2022-09-09T07:12:05;16.10;99.90
24262;DHT22;12385;51.412;5.540;2022-09-09T07:14:31;16.20;99.90
24262;DHT22;12385;51.412;5.540;2022-09-09T07:16:58;16.30;99.90
24262;DHT22;12385;51.412;5.540;2022-09-09T07:19:23;16.30;99.90
24262;DHT22;12385;51.412;5.540;2022-09-09T07:21:49;16.40;99.90
24262;DHT22;12385;51.412;5.540;2022-09-09T07:24:14;16.40;99.90
24262;DHT22;12385;51.412;5.540;2022-09-09T07:26:41;16.50;99.90
24262;DHT22;12385;51.412;5.540;2022-09-09T07:29:07;16.60;99.90
24262;DHT22;12385;51.412;5.540;2022-09-09T07:31:39;16.70;99.90
24262;DHT22;12385;51.412;5.540;2022-09-09T07:34:05;16.80;99.90
24262;DHT22;12385;51.412;5.540;2022-09-09T07:36:36;16.80;99.90
24262;DHT22;12385;51.412;5.540;2022-09-09T07:39:05;16.90;99.90
24262;DHT22;12385;51.412;5.540;2022-09-09T07:41:46;17.00;99.90
24262;DHT22;12385;51.412;5.540;2022-09-09T07:44:17;17.10;99.90
24262;DHT22;12385;51.412;5.540;2022-09-09T07:46:43;17.20;99.90
24262;DHT22;12385;51.412;5.540;2022-09-09T07:49:10;17.20;99.90
24262;DHT22;12385;51.412;5.540;2022-09-09T07:51:41;17.30;99.90
24262;DHT22;12385;51.412;5.540;2022-09-09T07:54:09;17.30;99.90
24262;DHT22;12385;51.412;5.540;2022-09-09T07:56:35;17.30;99.90
24262;DHT22;12385;51.412;5.540;2022-09-09T07:59:02;17.30;99.90
24262;DHT22;12385;51.412;5.540;2022-09-09T08:01:33;17.40;99.90
24262;DHT22;12385;51.412;5.540;2022-09-09T08:04:14;17.50;99.90
24262;DHT22;12385;51.412;5.540;2022-09-09T08:06:43;17.60;99.90
24262;DHT22;12385;51.412;5.540;2022-09-09T08:09:09;17.60;99.90
24262;DHT22;12385;51.412;5.540;2022-09-09T08:11:35;17.70;99.90
24262;DHT22;12385;51.412;5.540;2022-09-09T08:14:02;17.80;99.90
24262;DHT22;12385;51.412;5.540;2022-09-09T08:16:31;17.90;99.90
24262;DHT22;12385;51.412;5.540;2022-09-09T08:18:57;17.90;99.90
24262;DHT22;12385;51.412;5.540;2022-09-09T08:21:28;17.90;99.90
24262;DHT22;12385;51.412;5.540;2022-09-09T08:23:55;17.90;99.90
24262;DHT22;12385;51.412;5.540;2022-09-09T08:26:23;17.90;99.90
24262;DHT22;12385;51.412;5.540;2022-09-09T08:28:54;17.90;99.90
24262;DHT22;12385;51.412;5.540;2022-09-09T08:31:26;17.90;99.90
24262;DHT22;12385;51.412;5.540;2022-09-09T08:33:53;18.00;99.90
24262;DHT22;12385;51.412;5.540;2022-09-09T08:36:21;18.10;99.90
24262;DHT22;12385;51.412;5.540;2022-09-09T08:38:48;18.10;99.90
24262;DHT22;12385;51.412;5.540;2022-09-09T08:49:08;18.30;99.90
24262;DHT22;12385;51.412;5.540;2022-09-09T08:51:39;18.30;99.90
24262;DHT22;12385;51.412;5.540;2022-09-09T08:54:05;18.20;99.90
24262;DHT22;12385;51.412;5.540;2022-09-09T08:56:32;18.20;99.90
24262;DHT22;12385;51.412;5.540;2022-09-09T08:58:59;18.10;99.90
24262;DHT22;12385;51.412;5.540;2022-09-09T09:04:26;18.10;99.90
24262;DHT22;12385;51.412;5.540;2022-09-09T09:09:57;18.10;99.90
24262;DHT22;12385;51.412;5.540;2022-09-09T09:12:27;18.20;99.90
24262;DHT22;12385;51.412;5.540;2022-09-09T09:14:54;18.10;99.90
24262;DHT22;12385;51.412;5.540;2022-09-09T09:17:25;18.20;99.90
24262;DHT22;12385;51.412;5.540;2022-09-09T09:19:52;18.20;99.90
24262;DHT22;12385;51.412;5.540;2022-09-09T09:22:21;18.30;99.90
24262;DHT22;12385;51.412;5.540;2022-09-09T09:24:55;18.30;99.90
24262;DHT22;12385;51.412;5.540;2022-09-09T09:30:24;18.30;99.90
24262;DHT22;12385;51.412;5.540;2022-09-09T09:33:03;18.30;99.90
24262;DHT22;12385;51.412;5.540;2022-09-09T09:35:30;18.30;99.90
24262;DHT22;12385;51.412;5.540;2022-09-09T09:37:56;18.30;99.90
24262;DHT22;12385;51.412;5.540;2022-09-09T09:40:22;18.30;99.90
24262;DHT22;12385;51.412;5.540;2022-09-09T09:42:54;18.30;99.90
24262;DHT22;12385;51.412;5.540;2022-09-09T09:45:24;18.30;99.90
24262;DHT22;12385;51.412;5.540;2022-09-09T09:48:05;18.40;99.90
24262;DHT22;12385;51.412;5.540;2022-09-09T09:50:32;18.60;99.90
24262;DHT22;12385;51.412;5.540;2022-09-09T09:53:03;18.70;99.90
24262;DHT22;12385;51.412;5.540;2022-09-09T09:55:32;18.90;99.90
24262;DHT22;12385;51.412;5.540;2022-09-09T09:58:06;18.90;99.90
24262;DHT22;12385;51.412;5.540;2022-09-09T10:00:32;18.90;99.90
24262;DHT22;12385;51.412;5.540;2022-09-09T10:03:00;18.80;99.90
24262;DHT22;12385;51.412;5.540;2022-09-09T10:05:30;18.70;99.90
24262;DHT22;12385;51.412;5.540;2022-09-09T10:10:40;18.50;99.90
24262;DHT22;12385;51.412;5.540;2022-09-09T10:13:25;18.30;99.90
24262;DHT22;12385;51.412;5.540;2022-09-09T10:19:21;18.30;99.90
24262;DHT22;12385;51.412;5.540;2022-09-09T10:21:48;18.30;99.90
24262;DHT22;12385;51.412;5.540;2022-09-09T10:35:12;17.90;99.90
24262;DHT22;12385;51.412;5.540;2022-09-09T10:37:58;17.80;99.90
24262;DHT22;12385;51.412;5.540;2022-09-09T10:40:37;17.60;99.90
24262;DHT22;12385;51.412;5.540;2022-09-09T10:43:42;17.50;99.90
24262;DHT22;12385;51.412;5.540;2022-09-09T10:57:36;17.20;99.90
24262;DHT22;12385;51.412;5.540;2022-09-09T11:00:22;17.20;99.90
24262;DHT22;12385;51.412;5.540;2022-09-09T11:02:58;17.20;99.90
24262;DHT22;12385;51.412;5.540;2022-09-09T11:05:46;17.30;99.90
24262;DHT22;12385;51.412;5.540;2022-09-09T11:08:19;17.40;99.90
24262;DHT22;12385;51.412;5.540;2022-09-09T11:13:49;17.50;99.90
24262;DHT22;12385;51.412;5.540;2022-09-09T11:16:33;17.70;99.90
24262;DHT22;12385;51.412;5.540;2022-09-09T11:21:49;17.90;99.90
24262;DHT22;12385;51.412;5.540;2022-09-09T11:26:51;18.20;99.90
24262;DHT22;12385;51.412;5.540;2022-09-09T11:29:26;18.40;99.90
24262;DHT22;12385;51.412;5.540;2022-09-09T11:40:33;18.70;99.90
24262;DHT22;12385;51.412;5.540;2022-09-09T11:43:10;18.80;99.90
24262;DHT22;12385;51.412;5.540;2022-09-09T11:45:38;18.80;99.90
24262;DHT22;12385;51.412;5.540;2022-09-09T11:48:04;18.90;99.90
24262;DHT22;12385;51.412;5.540;2022-09-09T11:50:36;18.80;99.90
24262;DHT22;12385;51.412;5.540;2022-09-09T11:53:19;18.80;99.90
24262;DHT22;12385;51.412;5.540;2022-09-09T11:56:03;18.80;99.90
24262;DHT22;12385;51.412;5.540;2022-09-09T11:58:37;18.80;99.90
24262;DHT22;12385;51.412;5.540;2022-09-09T12:01:25;18.80;99.90
24262;DHT22;12385;51.412;5.540;2022-09-09T12:04:01;18.80;99.90
24262;DHT22;12385;51.412;5.540;2022-09-09T12:06:33;18.80;99.90
24262;DHT22;12385;51.412;5.540;2022-09-09T12:11:49;18.90;99.90
24262;DHT22;12385;51.412;5.540;2022-09-09T12:19:40;19.20;99.90
24262;DHT22;12385;51.412;5.540;2022-09-09T12:24:46;19.30;99.90
24262;DHT22;12385;51.412;5.540;2022-09-09T12:27:31;19.30;99.90
24262;DHT22;12385;51.412;5.540;2022-09-09T12:30:07;19.40;99.90
24262;DHT22;12385;51.412;5.540;2022-09-09T12:32:35;19.50;99.90
24262;DHT22;12385;51.412;5.540;2022-09-09T12:35:04;19.70;99.90
24262;DHT22;12385;51.412;5.540;2022-09-09T12:37:41;19.70;99.90
24262;DHT22;12385;51.412;5.540;2022-09-09T12:40:28;19.70;99.90
24262;DHT22;12385;51.412;5.540;2022-09-09T12:42:54;19.80;99.90
24262;DHT22;12385;51.412;5.540;2022-09-09T12:45:26;19.80;99.90
24262;DHT22;12385;51.412;5.540;2022-09-09T12:50:33;19.70;99.90
24262;DHT22;12385;51.412;5.540;2022-09-09T12:53:33;19.70;99.90
24262;DHT22;12385;51.412;5.540;2022-09-09T12:56:03;19.60;99.90
24262;DHT22;12385;51.412;5.540;2022-09-09T12:58:30;19.60;99.90
24262;DHT22;12385;51.412;5.540;2022-09-09T13:01:01;19.60;99.90
24262;DHT22;12385;51.412;5.540;2022-09-09T13:03:31;19.70;99.90
24262;DHT22;12385;51.412;5.540;2022-09-09T13:06:19;19.70;99.90
24262;DHT22;12385;51.412;5.540;2022-09-09T13:08:45;19.80;99.90
24262;DHT22;12385;51.412;5.540;2022-09-09T13:11:15;19.90;99.90
24262;DHT22;12385;51.412;5.540;2022-09-09T13:13:43;19.90;99.90
24262;DHT22;12385;51.412;5.540;2022-09-09T13:16:25;19.90;99.90
24262;DHT22;12385;51.412;5.540;2022-09-09T13:18:52;20.00;99.90
24262;DHT22;12385;51.412;5.540;2022-09-09T13:21:18;20.10;99.90
24262;DHT22;12385;51.412;5.540;2022-09-09T13:23:49;20.30;99.90
24262;DHT22;12385;51.412;5.540;2022-09-09T13:26:23;20.50;99.90
24262;DHT22;12385;51.412;5.540;2022-09-09T13:28:50;20.60;99.90
24262;DHT22;12385;51.412;5.540;2022-09-09T13:31:29;20.70;99.90
24262;DHT22;12385;51.412;5.540;2022-09-09T13:33:56;20.90;99.90
24262;DHT22;12385;51.412;5.540;2022-09-09T13:36:32;20.90;99.90
24262;DHT22;12385;51.412;5.540;2022-09-09T13:38:59;20.90;99.90
24262;DHT22;12385;51.412;5.540;2022-09-09T13:41:36;20.90;99.90
24262;DHT22;12385;51.412;5.540;2022-09-09T13:44:19;20.70;99.90
24262;DHT22;12385;51.412;5.540;2022-09-09T13:46:59;20.70;99.90
24262;DHT22;12385;51.412;5.540;2022-09-09T13:49:28;20.70;99.90
24262;DHT22;12385;51.412;5.540;2022-09-09T13:52:10;20.80;99.90
24262;DHT22;12385;51.412;5.540;2022-09-09T13:54:37;20.80;99.90
24262;DHT22;12385;51.412;5.540;2022-09-09T13:57:02;20.90;99.90
24262;DHT22;12385;51.412;5.540;2022-09-09T13:59:29;20.80;99.90
24262;DHT22;12385;51.412;5.540;2022-09-09T14:01:55;20.80;99.90
24262;DHT22;12385;51.412;5.540;2022-09-09T14:04:22;21.00;99.90
24262;DHT22;12385;51.412;5.540;2022-09-09T14:06:48;21.60;99.90
24262;DHT22;12385;51.412;5.540;2022-09-09T14:09:16;22.50;99.90
24262;DHT22;12385;51.412;5.540;2022-09-09T14:11:43;23.20;99.90
24262;DHT22;12385;51.412;5.540;2022-09-09T14:14:09;23.60;99.90
24262;DHT22;12385;51.412;5.540;2022-09-09T14:16:35;23.60;99.90
24262;DHT22;12385;51.412;5.540;2022-09-09T14:19:01;23.30;99.90
24262;DHT22;12385;51.412;5.540;2022-09-09T14:21:27;23.00;99.90
24262;DHT22;12385;51.412;5.540;2022-09-09T14:23:53;22.80;99.90
24262;DHT22;12385;51.412;5.540;2022-09-09T14:26:20;22.60;99.90
24262;DHT22;12385;51.412;5.540;2022-09-09T14:28:46;22.20;99.90
24262;DHT22;12385;51.412;5.540;2022-09-09T14:31:12;22.00;99.90
24262;DHT22;12385;51.412;5.540;2022-09-09T14:33:39;22.10;99.90
24262;DHT22;12385;51.412;5.540;2022-09-09T14:36:05;22.40;99.90
24262;DHT22;12385;51.412;5.540;2022-09-09T14:38:35;22.60;99.90
24262;DHT22;12385;51.412;5.540;2022-09-09T14:41:11;22.70;99.90
24262;DHT22;12385;51.412;5.540;2022-09-09T14:43:38;22.70;99.90
24262;DHT22;12385;51.412;5.540;2022-09-09T14:46:06;23.10;99.90
24262;DHT22;12385;51.412;5.540;2022-09-09T14:48:32;23.60;99.90
24262;DHT22;12385;51.412;5.540;2022-09-09T14:53:33;24.40;99.90
24262;DHT22;12385;51.412;5.540;2022-09-09T14:56:10;25.00;99.90
24262;DHT22;12385;51.412;5.540;2022-09-09T14:58:37;25.20;99.10
24262;DHT22;12385;51.412;5.540;2022-09-09T15:01:08;24.80;98.00
24262;DHT22;12385;51.412;5.540;2022-09-09T15:03:36;24.20;97.90
24262;DHT22;12385;51.412;5.540;2022-09-09T15:06:06;23.60;97.90
24262;DHT22;12385;51.412;5.540;2022-09-09T15:08:34;23.30;98.60
24262;DHT22;12385;51.412;5.540;2022-09-09T15:11:02;23.30;99.00
24262;DHT22;12385;51.412;5.540;2022-09-09T15:13:28;23.80;98.50
24262;DHT22;12385;51.412;5.540;2022-09-09T15:15:53;24.20;97.80
24262;DHT22;12385;51.412;5.540;2022-09-09T15:18:20;24.20;97.40
24262;DHT22;12385;51.412;5.540;2022-09-09T15:20:46;24.10;96.90
24262;DHT22;12385;51.412;5.540;2022-09-09T15:23:13;23.80;96.80
24262;DHT22;12385;51.412;5.540;2022-09-09T15:25:49;23.70;97.40
24262;DHT22;12385;51.412;5.540;2022-09-09T15:28:15;23.60;97.80
24262;DHT22;12385;51.412;5.540;2022-09-09T15:30:41;23.30;98.30
24262;DHT22;12385;51.412;5.540;2022-09-09T15:33:09;23.10;98.50
24262;DHT22;12385;51.412;5.540;2022-09-09T15:35:35;22.90;98.60
24262;DHT22;12385;51.412;5.540;2022-09-09T15:38:02;23.00;99.40
24262;DHT22;12385;51.412;5.540;2022-09-09T15:40:30;23.50;99.00
24262;DHT22;12385;51.412;5.540;2022-09-09T15:42:57;23.70;98.90
24262;DHT22;12385;51.412;5.540;2022-09-09T15:45:23;23.70;98.40
24262;DHT22;12385;51.412;5.540;2022-09-09T15:47:49;23.50;98.50
24262;DHT22;12385;51.412;5.540;2022-09-09T15:50:14;23.30;98.70
24262;DHT22;12385;51.412;5.540;2022-09-09T15:52:40;23.10;98.80
24262;DHT22;12385;51.412;5.540;2022-09-09T15:55:07;23.00;99.40
24262;DHT22;12385;51.412;5.540;2022-09-09T15:57:33;23.00;99.50
24262;DHT22;12385;51.412;5.540;2022-09-09T16:00:01;23.00;99.30
24262;DHT22;12385;51.412;5.540;2022-09-09T16:02:28;23.00;99.20
24262;DHT22;12385;51.412;5.540;2022-09-09T16:04:53;22.80;99.30
24262;DHT22;12385;51.412;5.540;2022-09-09T16:07:19;22.70;99.60
24262;DHT22;12385;51.412;5.540;2022-09-09T16:09:44;22.60;99.80
24262;DHT22;12385;51.412;5.540;2022-09-09T16:12:10;22.50;99.90
24262;DHT22;12385;51.412;5.540;2022-09-09T16:14:37;22.40;99.90
24262;DHT22;12385;51.412;5.540;2022-09-09T16:17:05;22.40;99.90
24262;DHT22;12385;51.412;5.540;2022-09-09T16:19:31;22.20;99.90
24262;DHT22;12385;51.412;5.540;2022-09-09T16:21:57;22.10;99.90
24262;DHT22;12385;51.412;5.540;2022-09-09T16:24:23;22.00;99.90
24262;DHT22;12385;51.412;5.540;2022-09-09T16:26:53;21.80;99.90
24262;DHT22;12385;51.412;5.540;2022-09-09T16:29:20;21.60;99.90
24262;DHT22;12385;51.412;5.540;2022-09-09T16:31:47;21.60;99.90
24262;DHT22;12385;51.412;5.540;2022-09-09T16:34:14;21.60;99.90
24262;DHT22;12385;51.412;5.540;2022-09-09T16:36:41;21.50;99.90
24262;DHT22;12385;51.412;5.540;2022-09-09T16:39:09;21.40;99.90
24262;DHT22;12385;51.412;5.540;2022-09-09T16:41:37;21.30;99.90
24262;DHT22;12385;51.412;5.540;2022-09-09T16:44:05;21.10;99.90
24262;DHT22;12385;51.412;5.540;2022-09-09T16:46:34;20.90;99.90
24262;DHT22;12385;51.412;5.540;2022-09-09T16:49:01;20.80;99.90
24262;DHT22;12385;51.412;5.540;2022-09-09T16:51:29;20.50;99.90
24262;DHT22;12385;51.412;5.540;2022-09-09T16:53:58;20.10;99.90
24262;DHT22;12385;51.412;5.540;2022-09-09T16:56:26;19.70;99.90
24262;DHT22;12385;51.412;5.540;2022-09-09T16:58:57;19.20;99.90
24262;DHT22;12385;51.412;5.540;2022-09-09T17:01:27;18.90;99.90
24262;DHT22;12385;51.412;5.540;2022-09-09T17:03:57;18.60;99.90
24262;DHT22;12385;51.412;5.540;2022-09-09T17:06:23;18.30;99.90
24262;DHT22;12385;51.412;5.540;2022-09-09T17:08:54;18.10;99.90
24262;DHT22;12385;51.412;5.540;2022-09-09T17:11:20;18.00;99.90
24262;DHT22;12385;51.412;5.540;2022-09-09T17:13:47;17.90;99.90
24262;DHT22;12385;51.412;5.540;2022-09-09T17:16:14;17.90;99.90
24262;DHT22;12385;51.412;5.540;2022-09-09T17:18:40;17.90;99.90
24262;DHT22;12385;51.412;5.540;2022-09-09T17:21:09;17.80;99.90
24262;DHT22;12385;51.412;5.540;2022-09-09T17:23:35;17.80;99.90
24262;DHT22;12385;51.412;5.540;2022-09-09T17:26:05;17.80;99.90
24262;DHT22;12385;51.412;5.540;2022-09-09T17:28:36;17.70;99.90
24262;DHT22;12385;51.412;5.540;2022-09-09T17:31:04;17.80;99.90
24262;DHT22;12385;51.412;5.540;2022-09-09T17:33:34;17.70;99.90
24262;DHT22;12385;51.412;5.540;2022-09-09T17:36:05;17.70;99.90
24262;DHT22;12385;51.412;5.540;2022-09-09T17:38:32;17.70;99.90